createdAt,value
2017-01-30T00:00:32.221Z,2.33
2017-01-30T00:01:12.772Z,2.43
2017-01-30T00:01:53.221Z,2.39
2017-01-30T00:02:35.342Z,2.43
2017-01-30T00:03:15.823Z,2.36
2017-01-30T00:03:57.150Z,2.36
2017-01-30T00:04:37.631Z,2.42
2017-01-30T00:05:18.177Z,2.47
2017-01-30T00:05:58.719Z,2.53
2017-01-30T00:06:39.198Z,2.49
2017-01-30T00:07:19.705Z,2.53
2017-01-30T00:08:01.815Z,2.56
2017-01-30T00:08:42.329Z,2.53
2017-01-30T00:09:23.512Z,2.56
2017-01-30T00:10:03.995Z,2.47
2017-01-30T00:10:45.480Z,2.51
2017-01-30T00:11:25.934Z,2.49
2017-01-30T00:12:06.416Z,2.53
2017-01-30T00:12:46.936Z,2.57
2017-01-30T00:13:27.431Z,2.56
2017-01-30T00:14:07.918Z,2.67
2017-01-30T00:14:48.359Z,2.62
2017-01-30T00:15:28.875Z,2.68
2017-01-30T00:16:09.367Z,2.67
2017-01-30T00:16:49.838Z,2.64
2017-01-30T00:17:30.271Z,2.64
2017-01-30T00:18:10.770Z,2.64
2017-01-30T00:18:51.261Z,2.68
2017-01-30T00:19:31.900Z,2.79
2017-01-30T00:20:12.422Z,2.61
2017-01-30T00:20:52.898Z,2.6
2017-01-30T00:21:33.438Z,2.65
2017-01-30T00:22:13.904Z,2.72
2017-01-30T00:22:54.420Z,2.67
2017-01-30T00:23:34.917Z,2.68
2017-01-30T00:24:15.419Z,2.69
2017-01-30T00:24:55.929Z,2.68
2017-01-30T00:25:37.170Z,2.74
2017-01-30T00:26:17.669Z,2.79
2017-01-30T00:26:58.126Z,2.83
2017-01-30T00:27:38.627Z,2.83
2017-01-30T00:28:19.129Z,2.89
2017-01-30T00:28:59.603Z,2.86
2017-01-30T00:29:40.105Z,2.9
2017-01-30T00:30:20.574Z,2.87
2017-01-30T00:31:01.064Z,2.89
2017-01-30T00:31:41.544Z,2.93
2017-01-30T00:32:22.029Z,2.93
2017-01-30T00:33:02.489Z,2.93
2017-01-30T00:33:44.656Z,3
2017-01-30T00:34:25.124Z,2.95
2017-01-30T00:35:05.599Z,2.98
2017-01-30T00:35:46.150Z,3.04
2017-01-30T00:36:26.615Z,3.07
2017-01-30T00:37:07.095Z,2.98
2017-01-30T00:37:47.580Z,3.05
2017-01-30T00:38:28.057Z,3.11
2017-01-30T00:39:08.566Z,3.13
2017-01-30T00:39:49.041Z,3.08
2017-01-30T00:40:29.534Z,3.05
2017-01-30T00:41:09.996Z,3.14
2017-01-30T00:41:50.475Z,3.07
2017-01-30T00:42:30.954Z,3.07
2017-01-30T00:43:11.445Z,3.07
2017-01-30T00:43:51.944Z,3.05
2017-01-30T00:44:32.438Z,3.1
2017-01-30T00:45:12.914Z,3.1
2017-01-30T00:45:53.483Z,3.05
2017-01-30T00:46:33.886Z,3.07
2017-01-30T00:47:15.249Z,3.19
2017-01-30T00:47:55.723Z,3.11
2017-01-30T00:48:36.193Z,3.14
2017-01-30T00:49:16.709Z,3.18
2017-01-30T00:49:57.214Z,3.11
2017-01-30T00:50:38.664Z,3.19
2017-01-30T00:51:19.139Z,3.22
2017-01-30T00:52:00.152Z,3.14
2017-01-30T00:52:40.621Z,3.16
2017-01-30T00:53:21.101Z,3.16
2017-01-30T00:54:01.615Z,3.18
2017-01-30T00:56:01.686Z,3.18
2017-01-30T00:57:59.346Z,3.13
2017-01-30T00:58:41.690Z,3.19
2017-01-30T00:59:22.483Z,3.11
2017-01-30T01:00:02.978Z,3.1
2017-01-30T01:00:43.514Z,3.08
2017-01-30T01:01:23.972Z,3.13
2017-01-30T01:02:04.437Z,3.11
2017-01-30T01:02:44.882Z,3.07
2017-01-30T01:03:25.988Z,3.1
2017-01-30T01:04:06.529Z,3.13
2017-01-30T01:04:47.021Z,3.07
2017-01-30T01:05:27.515Z,3.1
2017-01-30T01:06:07.978Z,3.1
2017-01-30T01:06:49.015Z,3.05
2017-01-30T01:07:30.138Z,3.14
2017-01-30T01:08:10.631Z,3.05
2017-01-30T01:08:51.619Z,3.07
2017-01-30T01:09:32.136Z,3.08
2017-01-30T01:10:13.128Z,3.04
2017-01-30T01:10:55.214Z,3.1
2017-01-30T01:11:35.725Z,3.05
2017-01-30T01:12:16.217Z,3.05
2017-01-30T01:12:56.735Z,3.04
2017-01-30T01:13:37.740Z,3
2017-01-30T01:14:18.247Z,3.05
2017-01-30T01:14:58.771Z,3.01
2017-01-30T01:15:39.290Z,3.1
2017-01-30T01:16:20.283Z,3.08
2017-01-30T01:17:00.831Z,3.13
2017-01-30T01:17:41.303Z,3.07
2017-01-30T01:18:21.844Z,3.1
2017-01-30T01:19:02.322Z,3.08
2017-01-30T01:19:42.884Z,3.13
2017-01-30T01:20:23.399Z,3.05
2017-01-30T01:21:03.874Z,3.13
2017-01-30T01:21:44.373Z,3.1
2017-01-30T01:22:25.653Z,3.1
2017-01-30T01:23:06.111Z,3.08
2017-01-30T01:23:46.594Z,3.11
2017-01-30T01:24:27.107Z,3.1
2017-01-30T01:25:07.608Z,3.05
2017-01-30T01:25:48.113Z,3.11
2017-01-30T01:26:28.589Z,3.1
2017-01-30T01:27:10.882Z,3.19
2017-01-30T01:27:51.403Z,3.13
2017-01-30T01:28:31.932Z,3.18
2017-01-30T01:29:12.394Z,3.19
2017-01-30T01:29:52.900Z,3.18
2017-01-30T01:30:33.363Z,3.14
2017-01-30T01:31:13.826Z,3.18
2017-01-30T01:31:54.390Z,3.22
2017-01-30T01:32:34.879Z,3.28
2017-01-30T01:33:16.128Z,3.18
2017-01-30T01:33:56.649Z,3.29
2017-01-30T01:34:37.144Z,3.19
2017-01-30T01:35:17.654Z,3.18
2017-01-30T01:35:58.132Z,3.18
2017-01-30T01:36:38.633Z,3.32
2017-01-30T01:37:20.031Z,3.18
2017-01-30T01:38:00.502Z,3.23
2017-01-30T01:38:41.036Z,3.26
2017-01-30T01:39:21.474Z,3.29
2017-01-30T01:40:01.958Z,3.32
2017-01-30T01:40:42.442Z,3.26
2017-01-30T01:41:22.911Z,3.18
2017-01-30T01:42:03.372Z,3.25
2017-01-30T01:42:43.841Z,3.32
2017-01-30T01:43:24.326Z,3.29
2017-01-30T01:44:05.399Z,3.23
2017-01-30T01:44:45.874Z,3.32
2017-01-30T01:45:26.361Z,3.28
2017-01-30T01:46:06.846Z,3.32
2017-01-30T01:46:47.346Z,3.25
2017-01-30T01:47:28.812Z,3.32
2017-01-30T01:48:10.142Z,3.32
2017-01-30T01:48:50.621Z,3.31
2017-01-30T01:49:31.130Z,3.41
2017-01-30T01:50:11.614Z,3.29
2017-01-30T01:50:52.079Z,3.29
2017-01-30T01:51:32.591Z,3.37
2017-01-30T01:52:13.121Z,3.37
2017-01-30T01:52:53.649Z,3.34
2017-01-30T01:53:34.146Z,3.37
2017-01-30T01:55:47.553Z,3.5
2017-01-30T01:56:29.319Z,3.4
2017-01-30T01:57:09.787Z,3.34
2017-01-30T01:57:50.282Z,3.4
2017-01-30T01:58:30.749Z,3.41
2017-01-30T01:59:11.799Z,3.41
2017-01-30T01:59:52.278Z,3.5
2017-01-30T02:00:32.764Z,3.48
2017-01-30T02:01:13.245Z,3.53
2017-01-30T02:01:53.758Z,3.48
2017-01-30T02:02:34.331Z,3.44
2017-01-30T02:03:15.744Z,3.51
2017-01-30T02:03:56.240Z,3.53
2017-01-30T02:04:37.324Z,3.45
2017-01-30T02:05:17.776Z,3.56
2017-01-30T02:05:58.277Z,3.56
2017-01-30T02:06:38.798Z,3.6
2017-01-30T02:07:19.314Z,3.58
2017-01-30T02:07:59.757Z,3.59
2017-01-30T02:08:40.300Z,3.58
2017-01-30T02:09:20.764Z,3.51
2017-01-30T02:10:01.859Z,3.6
2017-01-30T02:10:42.303Z,3.53
2017-01-30T02:11:22.833Z,3.69
2017-01-30T02:12:03.295Z,3.56
2017-01-30T02:12:43.857Z,3.6
2017-01-30T02:13:25.135Z,3.69
2017-01-30T02:14:05.591Z,3.7
2017-01-30T02:14:47.873Z,3.58
2017-01-30T02:15:28.386Z,3.7
2017-01-30T02:16:08.857Z,3.76
2017-01-30T02:16:49.393Z,3.66
2017-01-30T02:17:29.867Z,3.7
2017-01-30T02:18:10.349Z,3.66
2017-01-30T02:18:50.827Z,3.66
2017-01-30T02:19:31.376Z,3.69
2017-01-30T02:20:11.834Z,3.76
2017-01-30T02:20:52.386Z,3.77
2017-01-30T02:21:32.840Z,3.74
2017-01-30T02:22:13.300Z,3.73
2017-01-30T02:22:53.777Z,3.7
2017-01-30T02:23:34.270Z,3.74
2017-01-30T02:24:14.739Z,3.74
2017-01-30T02:24:55.222Z,3.74
2017-01-30T02:25:35.741Z,3.7
2017-01-30T02:26:16.191Z,3.78
2017-01-30T02:26:56.681Z,3.8
2017-01-30T02:27:38.072Z,3.69
2017-01-30T02:28:19.317Z,3.83
2017-01-30T02:28:59.828Z,3.7
2017-01-30T02:29:40.273Z,3.81
2017-01-30T02:30:20.763Z,3.83
2017-01-30T02:31:01.273Z,3.8
2017-01-30T02:31:41.761Z,3.88
2017-01-30T02:32:22.314Z,3.78
2017-01-30T02:33:03.713Z,3.77
2017-01-30T02:33:44.173Z,3.74
2017-01-30T02:34:24.647Z,3.78
2017-01-30T02:35:05.119Z,3.8
2017-01-30T02:35:45.633Z,3.77
2017-01-30T02:36:26.138Z,3.84
2017-01-30T02:37:06.791Z,3.76
2017-01-30T02:37:47.166Z,3.78
2017-01-30T02:38:27.657Z,3.78
2017-01-30T02:39:08.155Z,3.86
2017-01-30T02:39:48.610Z,3.8
2017-01-30T02:40:29.128Z,3.76
2017-01-30T02:41:09.592Z,3.84
2017-01-30T02:41:50.067Z,3.81
2017-01-30T02:42:30.559Z,3.74
2017-01-30T02:43:11.714Z,3.76
2017-01-30T02:43:52.222Z,3.78
2017-01-30T02:44:32.687Z,3.84
2017-01-30T02:45:13.188Z,3.87
2017-01-30T02:45:53.739Z,3.88
2017-01-30T02:46:34.238Z,3.88
2017-01-30T02:47:14.771Z,3.87
2017-01-30T02:47:55.214Z,3.91
2017-01-30T02:48:36.211Z,3.84
2017-01-30T02:49:16.719Z,3.81
2017-01-30T02:49:57.186Z,3.83
2017-01-30T02:50:37.678Z,3.88
2017-01-30T02:51:18.156Z,3.86
2017-01-30T02:51:58.644Z,3.84
2017-01-30T02:52:39.182Z,3.88
2017-01-30T02:53:19.651Z,3.84
2017-01-30T02:54:00.099Z,3.86
2017-01-30T02:54:40.612Z,3.86
2017-01-30T02:55:21.149Z,3.91
2017-01-30T02:56:01.593Z,3.83
2017-01-30T02:56:42.081Z,3.83
2017-01-30T02:57:23.206Z,3.88
2017-01-30T02:58:03.681Z,3.81
2017-01-30T02:58:44.195Z,3.74
2017-01-30T02:59:24.671Z,3.8
2017-01-30T03:00:05.148Z,3.92
2017-01-30T03:00:45.628Z,3.87
2017-01-30T03:01:26.096Z,3.76
2017-01-30T03:02:07.234Z,3.76
2017-01-30T03:02:47.700Z,3.8
2017-01-30T03:03:28.191Z,3.81
2017-01-30T03:04:08.695Z,3.77
2017-01-30T03:04:49.242Z,3.81
2017-01-30T03:05:29.701Z,3.76
2017-01-30T03:06:10.221Z,3.83
2017-01-30T03:06:50.736Z,3.77
2017-01-30T03:07:31.207Z,3.88
2017-01-30T03:08:11.717Z,3.77
2017-01-30T03:08:52.185Z,3.73
2017-01-30T03:09:32.652Z,3.8
2017-01-30T03:10:13.206Z,3.8
2017-01-30T03:10:53.727Z,3.87
2017-01-30T03:11:34.275Z,3.8
2017-01-30T03:12:14.732Z,3.8
2017-01-30T03:12:55.233Z,3.76
2017-01-30T03:13:35.769Z,3.77
2017-01-30T03:14:16.265Z,3.76
2017-01-30T03:14:56.758Z,3.83
2017-01-30T03:15:37.310Z,3.83
2017-01-30T03:16:17.781Z,3.66
2017-01-30T03:16:58.243Z,3.76
2017-01-30T03:17:38.797Z,3.73
2017-01-30T03:18:19.256Z,3.8
2017-01-30T03:19:00.378Z,3.69
2017-01-30T03:19:40.881Z,3.8
2017-01-30T03:20:21.359Z,3.81
2017-01-30T03:21:01.811Z,3.78
2017-01-30T03:21:42.338Z,3.87
2017-01-30T03:22:22.864Z,3.76
2017-01-30T03:23:03.322Z,3.78
2017-01-30T03:23:43.816Z,3.83
2017-01-30T03:24:24.330Z,3.91
2017-01-30T03:25:04.792Z,3.8
2017-01-30T03:25:45.308Z,3.78
2017-01-30T03:26:25.757Z,3.77
2017-01-30T03:27:06.295Z,3.81
2017-01-30T03:27:46.703Z,3.86
2017-01-30T03:28:27.185Z,3.83
2017-01-30T03:29:10.542Z,3.81
2017-01-30T03:29:51.054Z,3.87
2017-01-30T03:30:31.491Z,3.91
2017-01-30T03:31:11.991Z,3.84
2017-01-30T03:31:52.461Z,3.83
2017-01-30T03:32:32.987Z,3.84
2017-01-30T03:33:13.455Z,3.87
2017-01-30T03:33:53.948Z,3.88
2017-01-30T03:34:34.447Z,3.86
2017-01-30T03:35:14.934Z,3.91
2017-01-30T03:35:55.416Z,3.91
2017-01-30T03:36:35.924Z,3.91
2017-01-30T03:37:16.375Z,3.94
2017-01-30T03:37:56.916Z,3.98
2017-01-30T03:38:37.359Z,3.94
2017-01-30T03:39:17.888Z,3.91
2017-01-30T03:39:58.417Z,3.86
2017-01-30T03:40:38.896Z,3.86
2017-01-30T03:41:19.369Z,3.91
2017-01-30T03:41:59.859Z,3.87
2017-01-30T03:42:40.320Z,3.91
2017-01-30T03:43:20.832Z,3.91
2017-01-30T03:44:01.362Z,3.86
2017-01-30T03:44:41.824Z,3.91
2017-01-30T03:45:22.323Z,3.92
2017-01-30T03:46:02.828Z,3.92
2017-01-30T03:46:43.303Z,3.94
2017-01-30T03:47:23.799Z,3.88
2017-01-30T03:48:04.308Z,3.94
2017-01-30T03:48:44.783Z,3.99
2017-01-30T03:49:25.250Z,3.95
2017-01-30T03:50:05.748Z,3.98
2017-01-30T03:50:46.259Z,3.99
2017-01-30T03:51:26.712Z,3.98
2017-01-30T03:52:07.201Z,3.98
2017-01-30T03:52:47.685Z,3.92
2017-01-30T03:53:28.183Z,3.96
2017-01-30T03:54:08.741Z,3.99
2017-01-30T03:54:49.220Z,3.98
2017-01-30T03:55:29.659Z,4.02
2017-01-30T03:56:10.797Z,3.95
2017-01-30T03:56:51.321Z,3.94
2017-01-30T03:57:31.822Z,3.98
2017-01-30T03:58:12.272Z,3.99
2017-01-30T03:58:52.742Z,3.95
2017-01-30T03:59:33.249Z,3.95
2017-01-30T04:00:13.751Z,3.99
2017-01-30T04:00:54.226Z,3.94
2017-01-30T04:01:34.718Z,3.95
2017-01-30T04:02:15.195Z,3.98
2017-01-30T04:02:55.686Z,3.92
2017-01-30T04:03:36.214Z,3.99
2017-01-30T04:04:16.629Z,3.98
2017-01-30T04:04:57.148Z,3.96
2017-01-30T04:05:37.603Z,3.92
2017-01-30T04:06:18.073Z,3.98
2017-01-30T04:06:58.594Z,3.96
2017-01-30T04:07:39.116Z,3.95
2017-01-30T04:08:20.414Z,3.92
2017-01-30T04:09:00.888Z,3.98
2017-01-30T04:09:41.371Z,3.92
2017-01-30T04:10:21.886Z,3.91
2017-01-30T04:11:02.361Z,3.92
2017-01-30T04:11:42.846Z,3.99
2017-01-30T04:12:23.312Z,3.92
2017-01-30T04:13:03.780Z,3.96
2017-01-30T04:13:44.289Z,3.87
2017-01-30T04:14:24.732Z,3.96
2017-01-30T04:15:05.218Z,4.02
2017-01-30T04:15:45.749Z,3.92
2017-01-30T04:16:26.191Z,3.98
2017-01-30T04:17:06.651Z,3.99
2017-01-30T04:17:47.145Z,3.98
2017-01-30T04:18:27.669Z,3.95
2017-01-30T04:19:08.123Z,3.96
2017-01-30T04:19:48.613Z,3.86
2017-01-30T04:20:29.122Z,3.86
2017-01-30T04:21:09.566Z,3.86
2017-01-30T04:21:50.091Z,3.83
2017-01-30T04:22:30.597Z,3.86
2017-01-30T04:23:11.050Z,3.83
2017-01-30T04:23:51.512Z,3.8
2017-01-30T04:24:32.005Z,3.81
2017-01-30T04:25:12.473Z,3.83
2017-01-30T04:25:52.981Z,3.87
2017-01-30T04:26:33.445Z,3.86
2017-01-30T04:27:13.938Z,3.78
2017-01-30T04:27:54.431Z,3.83
2017-01-30T04:28:34.951Z,3.78
2017-01-30T04:29:15.394Z,3.81
2017-01-30T04:29:55.885Z,3.8
2017-01-30T04:30:36.340Z,3.88
2017-01-30T04:31:16.826Z,3.76
2017-01-30T04:31:57.368Z,3.78
2017-01-30T04:32:37.839Z,3.78
2017-01-30T04:33:18.357Z,3.8
2017-01-30T04:33:58.799Z,3.78
2017-01-30T04:34:39.268Z,3.83
2017-01-30T04:35:19.763Z,3.8
2017-01-30T04:36:00.232Z,3.8
2017-01-30T04:36:40.703Z,3.76
2017-01-30T04:37:21.220Z,3.84
2017-01-30T04:38:01.706Z,3.84
2017-01-30T04:38:42.207Z,3.84
2017-01-30T04:39:22.723Z,3.81
2017-01-30T04:40:03.182Z,3.77
2017-01-30T04:40:43.705Z,3.86
2017-01-30T04:41:24.203Z,3.77
2017-01-30T04:42:04.709Z,3.87
2017-01-30T04:42:45.213Z,3.81
2017-01-30T04:43:25.665Z,3.76
2017-01-30T04:44:06.169Z,3.81
2017-01-30T04:44:46.644Z,3.84
2017-01-30T04:45:27.221Z,3.92
2017-01-30T04:46:07.686Z,3.84
2017-01-30T04:46:48.167Z,3.8
2017-01-30T04:47:28.660Z,3.77
2017-01-30T04:48:09.143Z,3.8
2017-01-30T04:48:49.624Z,3.81
2017-01-30T04:49:30.100Z,3.87
2017-01-30T04:50:10.572Z,3.76
2017-01-30T04:50:51.713Z,3.83
2017-01-30T04:51:32.241Z,3.88
2017-01-30T04:52:12.701Z,3.77
2017-01-30T04:52:53.238Z,3.81
2017-01-30T04:53:33.708Z,3.83
2017-01-30T04:54:14.285Z,3.81
2017-01-30T04:54:54.729Z,3.83
2017-01-30T04:55:35.268Z,3.83
2017-01-30T04:56:15.742Z,3.77
2017-01-30T04:56:56.233Z,3.8
2017-01-30T04:57:36.716Z,3.76
2017-01-30T04:58:17.182Z,3.83
2017-01-30T04:58:57.725Z,3.78
2017-01-30T04:59:38.180Z,3.78
2017-01-30T05:00:18.695Z,3.73
2017-01-30T05:00:59.198Z,3.7
2017-01-30T05:01:39.676Z,3.78
2017-01-30T05:02:20.154Z,3.76
2017-01-30T05:03:00.616Z,3.74
2017-01-30T05:03:41.146Z,3.7
2017-01-30T05:04:21.676Z,3.78
2017-01-30T05:05:02.146Z,3.86
2017-01-30T05:05:42.619Z,3.66
2017-01-30T05:06:23.757Z,3.8
2017-01-30T05:07:04.214Z,3.76
2017-01-30T05:07:44.726Z,3.81
2017-01-30T05:08:25.212Z,3.78
2017-01-30T05:09:05.675Z,3.74
2017-01-30T05:09:46.170Z,3.74
2017-01-30T05:10:26.663Z,3.7
2017-01-30T05:11:07.156Z,3.73
2017-01-30T05:11:47.718Z,3.7
2017-01-30T05:12:28.156Z,3.65
2017-01-30T05:13:08.705Z,3.7
2017-01-30T05:13:49.194Z,3.69
2017-01-30T05:14:29.734Z,3.69
2017-01-30T05:15:10.234Z,3.76
2017-01-30T05:15:50.726Z,3.77
2017-01-30T05:16:31.244Z,3.74
2017-01-30T05:17:11.699Z,3.7
2017-01-30T05:17:52.221Z,3.76
2017-01-30T05:18:32.779Z,3.73
2017-01-30T05:19:13.269Z,3.7
2017-01-30T05:19:53.766Z,3.76
2017-01-30T05:20:34.271Z,3.73
2017-01-30T05:21:14.860Z,3.8
2017-01-30T05:21:55.374Z,3.76
2017-01-30T05:22:35.857Z,3.63
2017-01-30T05:23:16.405Z,3.73
2017-01-30T05:23:57.114Z,3.73
2017-01-30T05:24:37.652Z,3.77
2017-01-30T05:25:18.130Z,3.77
2017-01-30T05:25:58.732Z,3.81
2017-01-30T05:26:39.422Z,3.8
2017-01-30T05:27:19.922Z,3.69
2017-01-30T05:28:00.507Z,3.83
2017-01-30T05:28:41.023Z,3.77
2017-01-30T05:29:21.663Z,3.81
2017-01-30T05:30:02.193Z,3.77
2017-01-30T05:30:42.663Z,3.77
2017-01-30T05:31:23.163Z,3.77
2017-01-30T05:32:03.642Z,3.86
2017-01-30T05:32:44.157Z,3.73
2017-01-30T05:33:24.697Z,3.76
2017-01-30T05:34:05.213Z,3.7
2017-01-30T05:34:45.747Z,3.69
2017-01-30T05:35:26.257Z,3.73
2017-01-30T05:36:06.807Z,3.76
2017-01-30T05:36:47.330Z,3.65
2017-01-30T05:37:27.856Z,3.68
2017-01-30T05:38:09.213Z,3.6
2017-01-30T05:38:49.691Z,3.65
2017-01-30T05:39:30.167Z,3.68
2017-01-30T05:40:10.651Z,3.58
2017-01-30T05:40:51.155Z,3.59
2017-01-30T05:41:31.625Z,3.66
2017-01-30T05:42:12.083Z,3.66
2017-01-30T05:42:52.589Z,3.7
2017-01-30T05:43:33.075Z,3.66
2017-01-30T05:44:13.523Z,3.68
2017-01-30T05:44:54.021Z,3.66
2017-01-30T05:45:34.507Z,3.63
2017-01-30T05:46:15.000Z,3.66
2017-01-30T05:47:53.059Z,3.65
2017-01-30T05:48:35.949Z,3.59
2017-01-30T05:49:16.144Z,3.5
2017-01-30T05:49:56.610Z,3.56
2017-01-30T05:50:37.119Z,3.53
2017-01-30T05:51:17.633Z,3.55
2017-01-30T05:51:59.075Z,3.56
2017-01-30T05:52:39.370Z,3.55
2017-01-30T05:53:19.854Z,3.59
2017-01-30T05:54:00.300Z,3.58
2017-01-30T05:54:41.004Z,3.56
2017-01-30T05:55:21.449Z,3.59
2017-01-30T05:56:01.958Z,3.55
2017-01-30T05:56:42.412Z,3.55
2017-01-30T05:57:23.026Z,3.58
2017-01-30T05:58:03.771Z,3.5
2017-01-30T05:58:44.580Z,3.56
2017-01-30T05:59:25.031Z,3.55
2017-01-30T06:00:05.517Z,3.53
2017-01-30T06:00:46.038Z,3.58
2017-01-30T06:01:26.549Z,3.58
2017-01-30T06:02:07.114Z,3.58
2017-01-30T06:02:47.611Z,3.55
2017-01-30T06:03:28.096Z,3.63
2017-01-30T06:04:08.582Z,3.56
2017-01-30T06:04:49.100Z,3.56
2017-01-30T06:05:30.141Z,3.47
2017-01-30T06:06:10.630Z,3.47
2017-01-30T06:06:51.176Z,3.48
2017-01-30T06:07:31.712Z,3.5
2017-01-30T06:08:12.189Z,3.53
2017-01-30T06:08:52.745Z,3.5
2017-01-30T06:09:33.210Z,3.45
2017-01-30T06:10:13.694Z,3.51
2017-01-30T06:10:54.191Z,3.5
2017-01-30T06:11:34.722Z,3.41
2017-01-30T06:12:15.238Z,3.44
2017-01-30T06:12:55.691Z,3.48
2017-01-30T06:13:36.172Z,3.5
2017-01-30T06:14:16.664Z,3.41
2017-01-30T06:14:57.179Z,3.42
2017-01-30T06:15:37.666Z,3.44
2017-01-30T06:16:18.135Z,3.45
2017-01-30T06:16:58.651Z,3.41
2017-01-30T06:17:39.122Z,3.4
2017-01-30T06:18:19.608Z,3.42
2017-01-30T06:19:00.102Z,3.44
2017-01-30T06:19:40.604Z,3.48
2017-01-30T06:20:21.111Z,3.4
2017-01-30T06:21:01.609Z,3.37
2017-01-30T06:21:42.064Z,3.42
2017-01-30T06:22:22.542Z,3.48
2017-01-30T06:23:03.064Z,3.4
2017-01-30T06:23:43.547Z,3.48
2017-01-30T06:24:24.094Z,3.37
2017-01-30T06:25:04.567Z,3.41
2017-01-30T06:25:45.059Z,3.41
2017-01-30T06:26:25.528Z,3.47
2017-01-30T06:27:06.040Z,3.51
2017-01-30T06:27:46.531Z,3.4
2017-01-30T06:28:27.001Z,3.42
2017-01-30T06:29:07.500Z,3.42
2017-01-30T06:29:47.956Z,3.5
2017-01-30T06:30:28.440Z,3.48
2017-01-30T06:31:08.970Z,3.51
2017-01-30T06:31:49.495Z,3.48
2017-01-30T06:32:30.085Z,3.45
2017-01-30T06:33:10.568Z,3.5
2017-01-30T06:33:51.073Z,3.45
2017-01-30T06:34:31.507Z,3.47
2017-01-30T06:35:12.001Z,3.48
2017-01-30T06:35:52.521Z,3.47
2017-01-30T06:36:32.989Z,3.55
2017-01-30T06:37:13.473Z,3.51
2017-01-30T06:37:54.008Z,3.47
2017-01-30T06:38:34.526Z,3.56
2017-01-30T06:39:15.012Z,3.51
2017-01-30T06:39:55.501Z,3.5
2017-01-30T06:40:35.979Z,3.5
2017-01-30T06:41:16.468Z,3.5
2017-01-30T06:41:56.974Z,3.45
2017-01-30T06:42:37.457Z,3.51
2017-01-30T06:43:17.971Z,3.5
2017-01-30T06:43:58.467Z,3.51
2017-01-30T06:44:39.004Z,3.48
2017-01-30T06:45:19.487Z,3.51
2017-01-30T06:46:00.018Z,3.5
2017-01-30T06:46:40.532Z,3.5
2017-01-30T06:47:21.000Z,3.45
2017-01-30T06:48:01.442Z,3.44
2017-01-30T06:48:41.960Z,3.42
2017-01-30T06:49:22.456Z,3.59
2017-01-30T06:50:02.966Z,3.45
2017-01-30T06:50:43.468Z,3.5
2017-01-30T06:51:24.002Z,3.45
2017-01-30T06:52:04.531Z,3.5
2017-01-30T06:52:45.000Z,3.47
2017-01-30T06:53:25.553Z,3.47
2017-01-30T06:54:06.097Z,3.45
2017-01-30T06:54:46.594Z,3.45
2017-01-30T06:55:27.079Z,3.45
2017-01-30T06:56:07.567Z,3.51
2017-01-30T06:56:48.081Z,3.45
2017-01-30T06:57:28.717Z,3.44
2017-01-30T06:58:09.294Z,3.47
2017-01-30T06:58:49.809Z,3.51
2017-01-30T06:59:30.327Z,3.45
2017-01-30T07:00:11.294Z,3.5
2017-01-30T07:00:51.875Z,3.47
2017-01-30T07:01:32.580Z,3.41
2017-01-30T07:02:13.079Z,3.45
2017-01-30T07:02:53.641Z,3.47
2017-01-30T07:03:34.029Z,3.51
2017-01-30T07:04:14.550Z,3.45
2017-01-30T07:04:55.078Z,3.42
2017-01-30T07:05:35.590Z,3.47
2017-01-30T07:06:16.075Z,3.48
2017-01-30T07:06:56.562Z,3.44
2017-01-30T07:07:37.369Z,3.37
2017-01-30T07:08:17.825Z,3.36
2017-01-30T07:08:58.305Z,3.42
2017-01-30T07:09:38.809Z,3.44
2017-01-30T07:10:19.302Z,3.5
2017-01-30T07:10:59.899Z,3.42
2017-01-30T07:11:40.432Z,3.45
2017-01-30T07:12:20.933Z,3.51
2017-01-30T07:13:01.400Z,3.5
2017-01-30T07:13:41.870Z,3.45
2017-01-30T07:14:22.425Z,3.5
2017-01-30T07:15:02.905Z,3.45
2017-01-30T07:15:43.397Z,3.41
2017-01-30T07:16:23.949Z,3.44
2017-01-30T07:17:04.516Z,3.5
2017-01-30T07:17:45.034Z,3.45
2017-01-30T07:19:46.407Z,3.5
2017-01-30T07:21:46.149Z,3.47
2017-01-30T07:23:52.234Z,3.53
2017-01-30T07:24:37.513Z,3.47
2017-01-30T07:25:20.012Z,3.5
2017-01-30T07:26:00.489Z,3.5
2017-01-30T07:26:41.025Z,3.5
2017-01-30T07:27:21.544Z,3.48
2017-01-30T07:28:02.088Z,3.44
2017-01-30T07:28:42.542Z,3.51
2017-01-30T07:29:23.061Z,3.47
2017-01-30T07:30:03.507Z,3.44
2017-01-30T07:30:44.005Z,3.45
2017-01-30T07:31:25.309Z,3.47
2017-01-30T07:32:05.776Z,3.5
2017-01-30T07:32:46.322Z,3.45
2017-01-30T07:33:26.787Z,3.41
2017-01-30T07:34:07.302Z,3.55
2017-01-30T07:34:47.825Z,3.45
2017-01-30T07:35:28.338Z,3.51
2017-01-30T07:36:08.831Z,3.47
2017-01-30T07:36:49.362Z,3.51
2017-01-30T07:37:29.852Z,3.5
2017-01-30T07:38:10.350Z,3.48
2017-01-30T07:38:50.864Z,3.51
2017-01-30T07:39:31.311Z,3.55
2017-01-30T07:40:11.816Z,3.62
2017-01-30T07:40:52.339Z,3.62
2017-01-30T07:41:32.863Z,3.53
2017-01-30T07:42:13.345Z,3.56
2017-01-30T07:42:53.865Z,3.55
2017-01-30T07:43:34.402Z,3.56
2017-01-30T07:44:14.986Z,3.58
2017-01-30T07:44:55.531Z,3.56
2017-01-30T07:45:36.088Z,3.62
2017-01-30T07:46:16.535Z,3.55
2017-01-30T07:46:57.085Z,3.55
2017-01-30T07:47:37.568Z,3.6
2017-01-30T07:48:18.034Z,3.56
2017-01-30T07:48:59.373Z,3.58
2017-01-30T07:49:39.832Z,3.58
2017-01-30T07:50:20.253Z,3.55
2017-01-30T07:51:00.794Z,3.53
2017-01-30T07:51:41.324Z,3.56
2017-01-30T07:52:21.839Z,3.56
2017-01-30T07:53:02.292Z,3.55
2017-01-30T07:53:42.807Z,3.53
2017-01-30T07:54:23.277Z,3.56
2017-01-30T07:55:03.801Z,3.6
2017-01-30T07:55:44.466Z,3.58
2017-01-30T07:56:24.940Z,3.55
2017-01-30T07:57:05.394Z,3.55
2017-01-30T07:57:45.912Z,3.5
2017-01-30T07:58:26.526Z,3.59
2017-01-30T07:59:06.999Z,3.55
2017-01-30T07:59:47.447Z,3.56
2017-01-30T08:00:28.016Z,3.56
2017-01-30T08:01:08.507Z,3.56
2017-01-30T08:01:49.012Z,3.51
2017-01-30T08:02:29.595Z,3.53
2017-01-30T08:03:10.258Z,3.53
2017-01-30T08:03:50.853Z,3.6
2017-01-30T08:04:31.545Z,3.56
2017-01-30T08:05:12.306Z,3.53
2017-01-30T08:05:52.887Z,3.56
2017-01-30T08:06:33.388Z,3.55
2017-01-30T08:07:13.891Z,3.56
2017-01-30T08:07:54.397Z,3.62
2017-01-30T08:08:34.839Z,3.56
2017-01-30T08:09:15.394Z,3.53
2017-01-30T08:09:55.832Z,3.62
2017-01-30T08:10:36.365Z,3.59
2017-01-30T08:11:16.834Z,3.56
2017-01-30T08:11:57.320Z,3.63
2017-01-30T08:12:37.753Z,3.53
2017-01-30T08:13:19.854Z,3.58
2017-01-30T08:14:00.331Z,3.68
2017-01-30T08:14:40.765Z,3.68
2017-01-30T08:15:21.259Z,3.65
2017-01-30T08:16:01.764Z,3.62
2017-01-30T08:16:43.220Z,3.68
2017-01-30T08:17:23.709Z,3.66
2017-01-30T08:18:04.198Z,3.68
2017-01-30T08:18:44.648Z,3.68
2017-01-30T08:19:25.133Z,3.59
2017-01-30T08:20:05.645Z,3.73
2017-01-30T08:20:47.749Z,3.59
2017-01-30T08:21:28.293Z,3.59
2017-01-30T08:22:08.919Z,3.62
2017-01-30T08:22:49.582Z,3.74
2017-01-30T08:23:30.151Z,3.7
2017-01-30T08:24:10.661Z,3.65
2017-01-30T08:24:51.923Z,3.63
2017-01-30T08:25:33.203Z,3.76
2017-01-30T08:26:13.763Z,3.65
2017-01-30T08:26:54.290Z,3.62
2017-01-30T08:27:34.774Z,3.65
2017-01-30T08:28:15.505Z,3.73
2017-01-30T08:28:56.034Z,3.69
2017-01-30T08:29:36.525Z,3.74
2017-01-30T08:30:17.038Z,3.84
2017-01-30T08:30:57.567Z,3.76
2017-01-30T08:31:38.051Z,3.78
2017-01-30T08:32:18.577Z,3.74
2017-01-30T08:32:59.067Z,3.84
2017-01-30T08:33:39.617Z,3.77
2017-01-30T08:34:20.160Z,3.91
2017-01-30T08:35:00.675Z,3.8
2017-01-30T08:35:41.128Z,3.83
2017-01-30T08:36:22.509Z,3.86
2017-01-30T08:37:03.074Z,3.84
2017-01-30T08:37:43.684Z,3.87
2017-01-30T08:38:24.232Z,3.88
2017-01-30T08:39:04.689Z,3.86
2017-01-30T08:39:45.219Z,3.91
2017-01-30T08:40:25.687Z,3.96
2017-01-30T08:41:06.168Z,4.02
2017-01-30T08:41:46.681Z,3.91
2017-01-30T08:42:27.208Z,3.94
2017-01-30T08:43:07.676Z,4.02
2017-01-30T08:43:48.236Z,3.96
2017-01-30T08:44:28.689Z,4.02
2017-01-30T08:45:09.257Z,3.98
2017-01-30T08:45:49.764Z,3.96
2017-01-30T08:46:31.780Z,4.04
2017-01-30T08:47:12.298Z,3.98
2017-01-30T08:47:53.501Z,4.06
2017-01-30T08:48:33.987Z,4.02
2017-01-30T08:49:14.445Z,3.96
2017-01-30T08:51:35.253Z,4.04
2017-01-30T08:52:23.528Z,4.05
2017-01-30T08:53:12.013Z,4.05
2017-01-30T08:55:16.086Z,4.17
2017-01-30T08:56:03.179Z,4.04
2017-01-30T08:56:52.809Z,4.16
2017-01-30T08:57:32.619Z,4.14
2017-01-30T08:58:13.087Z,4.16
2017-01-30T08:58:53.604Z,4.05
2017-01-30T08:59:34.110Z,4.06
2017-01-30T09:00:14.618Z,4.19
2017-01-30T09:00:55.118Z,4.13
2017-01-30T09:01:35.582Z,4.22
2017-01-30T09:02:16.122Z,4.2
2017-01-30T09:02:56.637Z,4.13
2017-01-30T09:03:37.147Z,4.14
2017-01-30T09:04:17.665Z,4.24
2017-01-30T09:04:58.128Z,4.1
2017-01-30T09:05:38.613Z,4.16
2017-01-30T09:06:19.092Z,4.06
2017-01-30T09:06:59.676Z,4.32
2017-01-30T09:07:40.163Z,4.17
2017-01-30T09:08:20.663Z,4.22
2017-01-30T09:09:01.200Z,4.16
2017-01-30T09:09:41.684Z,4.22
2017-01-30T09:10:22.222Z,4.26
2017-01-30T09:11:02.704Z,4.26
2017-01-30T09:11:43.233Z,4.2
2017-01-30T09:12:23.713Z,4.24
2017-01-30T09:13:04.239Z,4.23
2017-01-30T09:13:48.649Z,4.28
2017-01-30T09:14:29.187Z,4.3
2017-01-30T09:15:09.688Z,4.24
2017-01-30T09:15:50.204Z,4.28